Time;durP1;ratioP1;P1;durP2;ratioP2;P2;SDS_P1;SDS_P2;PMS_P1;PMS_P2;Temp;Humidity;BMP_temperature;BMP_pressure;BME280_temperature;BME280_humidity;BME280_pressure;Samples;Min_cycle;Max_cycle;Signal;HPM_P1;HPM_P2
2022/07/05 00:00:37;;;;;;;;;;;12.70;99.90;;;;;;5020583;28;19917;-80
2022/07/05 00:03:02;;;;;;;;;;;12.70;99.90;;;;;;5015185;28;20354;-77
2022/07/05 00:05:28;;;;;;;;;;;12.70;99.90;;;;;;5013905;28;19957;-76
2022/07/05 00:07:53;;;;;;;;;;;12.70;99.90;;;;;;5003270;28;19928;-75
2022/07/05 00:10:19;;;;;;;;;;;12.70;99.90;;;;;;5037176;28;19924;-79
2022/07/05 00:12:44;;;;;;;;;;;12.70;99.90;;;;;;5015632;28;19918;-77
2022/07/05 00:15:10;;;;;;;;;;;12.60;99.90;;;;;;5019147;28;20329;-78
2022/07/05 00:17:36;;;;;;;;;;;12.60;99.90;;;;;;5019561;28;19948;-77
2022/07/05 00:20:02;;;;;;;;;;;12.50;99.90;;;;;;5018422;28;19955;-78
2022/07/05 00:22:27;;;;;;;;;;;12.50;99.90;;;;;;5019034;28;19918;-80
2022/07/05 00:24:53;;;;;;;;;;;12.40;99.90;;;;;;5013161;28;19940;-78
2022/07/05 00:27:19;;;;;;;;;;;12.40;99.90;;;;;;5018643;28;19924;-78
2022/07/05 00:29:45;;;;;;;;;;;12.40;99.90;;;;;;5016442;28;20339;-78
2022/07/05 00:32:10;;;;;;;;;;;12.40;99.90;;;;;;5015663;28;19917;-78
2022/07/05 00:34:36;;;;;;;;;;;12.40;99.90;;;;;;5001419;28;20252;-79
2022/07/05 00:37:02;;;;;;;;;;;12.40;99.90;;;;;;5012051;28;19917;-79
2022/07/05 00:39:27;;;;;;;;;;;12.40;99.90;;;;;;5022423;28;20773;-78
2022/07/05 00:41:53;;;;;;;;;;;12.30;99.90;;;;;;5005396;28;19974;-79
2022/07/05 00:44:27;;;;;;;;;;;12.30;99.90;;;;;;5019714;28;20284;-77
2022/07/05 00:46:53;;;;;;;;;;;12.30;99.90;;;;;;5019773;28;19932;-77
2022/07/05 00:49:18;;;;;;;;;;;12.20;99.90;;;;;;5009470;28;19921;-79
2022/07/05 00:51:44;;;;;;;;;;;12.20;99.90;;;;;;5019146;28;19924;-77
2022/07/05 00:54:10;;;;;;;;;;;12.20;99.90;;;;;;4999880;28;19957;-76
2022/07/05 00:56:35;;;;;;;;;;;12.30;99.90;;;;;;5014799;28;19932;-77
2022/07/05 00:59:02;;;;;;;;;;;12.30;99.90;;;;;;5012952;28;20746;-80
2022/07/05 01:01:28;;;;;;;;;;;12.30;99.90;;;;;;5014294;28;20004;-78
2022/07/05 01:03:53;;;;;;;;;;;12.30;99.90;;;;;;5017109;28;20001;-77
2022/07/05 01:06:19;;;;;;;;;;;12.30;99.90;;;;;;5003567;28;20363;-78
2022/07/05 01:08:45;;;;;;;;;;;12.30;99.90;;;;;;5015020;28;19921;-79
2022/07/05 01:11:11;;;;;;;;;;;12.30;99.90;;;;;;5011098;28;19918;-78
2022/07/05 01:13:37;;;;;;;;;;;12.30;99.90;;;;;;5015672;28;20033;-78
2022/07/05 01:16:03;;;;;;;;;;;12.40;99.90;;;;;;5021006;28;20315;-78
2022/07/05 01:18:29;;;;;;;;;;;12.40;99.90;;;;;;5018158;28;20290;-76
2022/07/05 01:20:55;;;;;;;;;;;12.40;99.90;;;;;;4996538;28;19917;-78
2022/07/05 01:23:21;;;;;;;;;;;12.40;99.90;;;;;;5012822;28;20363;-76
2022/07/05 01:25:47;;;;;;;;;;;12.50;99.90;;;;;;5008895;28;19971;-76
2022/07/05 01:28:13;;;;;;;;;;;12.40;99.90;;;;;;5012956;28;19951;-76
2022/07/05 01:30:39;;;;;;;;;;;12.40;99.90;;;;;;5020180;28;20004;-76
2022/07/05 01:33:06;;;;;;;;;;;12.30;99.90;;;;;;5008721;28;19940;-77
2022/07/05 01:35:32;;;;;;;;;;;12.30;99.90;;;;;;5011662;28;19944;-77
2022/07/05 01:37:58;;;;;;;;;;;12.30;99.90;;;;;;5012776;28;19917;-79
2022/07/05 01:40:24;;;;;;;;;;;12.20;99.90;;;;;;5019340;28;20570;-79
2022/07/05 01:42:49;;;;;;;;;;;12.20;99.90;;;;;;5012687;28;19924;-76
2022/07/05 01:45:39;;;;;;;;;;;12.10;99.90;;;;;;5022549;28;19932;-80
2022/07/05 01:48:06;;;;;;;;;;;12.00;99.90;;;;;;5018167;28;19924;-78
2022/07/05 01:50:34;;;;;;;;;;;11.90;99.90;;;;;;5017563;28;19924;-77
2022/07/05 01:53:00;;;;;;;;;;;11.90;99.90;;;;;;5000099;28;19923;-80
2022/07/05 01:55:26;;;;;;;;;;;11.80;99.90;;;;;;5018789;28;19921;-78
2022/07/05 01:57:53;;;;;;;;;;;11.70;99.90;;;;;;5019620;28;19917;-80
2022/07/05 02:00:18;;;;;;;;;;;11.70;99.90;;;;;;5003113;28;19923;-78
2022/07/05 02:02:44;;;;;;;;;;;11.70;99.90;;;;;;5010755;28;19972;-77
2022/07/05 02:05:10;;;;;;;;;;;11.70;99.90;;;;;;5035931;28;19918;-80
2022/07/05 02:07:35;;;;;;;;;;;11.70;99.90;;;;;;5024616;28;19921;-81
2022/07/05 02:10:01;;;;;;;;;;;11.60;99.90;;;;;;5014204;28;19964;-76
2022/07/05 02:12:26;;;;;;;;;;;11.60;99.90;;;;;;5010074;28;19966;-78
2022/07/05 02:14:52;;;;;;;;;;;11.60;99.90;;;;;;5035088;28;20071;-76
2022/07/05 02:17:17;;;;;;;;;;;11.50;99.90;;;;;;4995170;28;19976;-75
2022/07/05 02:19:43;;;;;;;;;;;11.50;99.90;;;;;;5017398;28;19931;-76
2022/07/05 02:22:08;;;;;;;;;;;11.50;99.90;;;;;;5019304;28;19956;-79
2022/07/05 02:24:34;;;;;;;;;;;11.50;99.90;;;;;;5012557;28;19931;-78
2022/07/05 02:27:00;;;;;;;;;;;11.40;99.90;;;;;;5009347;28;19917;-79
2022/07/05 02:29:25;;;;;;;;;;;11.40;99.90;;;;;;4996053;28;20462;-79
2022/07/05 02:31:51;;;;;;;;;;;11.30;99.90;;;;;;5013189;28;20378;-79
2022/07/05 02:34:17;;;;;;;;;;;11.30;99.90;;;;;;5010077;28;19926;-75
2022/07/05 02:36:42;;;;;;;;;;;11.30;99.90;;;;;;5010538;28;20056;-79
2022/07/05 02:39:08;;;;;;;;;;;11.30;99.90;;;;;;5010086;28;19921;-77
2022/07/05 02:41:35;;;;;;;;;;;11.30;99.90;;;;;;5015313;28;19928;-77
2022/07/05 02:44:00;;;;;;;;;;;11.30;99.90;;;;;;5001176;28;19925;-79
2022/07/05 02:46:26;;;;;;;;;;;11.30;99.90;;;;;;5013820;28;20298;-80
2022/07/05 02:48:52;;;;;;;;;;;11.40;99.90;;;;;;4994453;28;19971;-78
2022/07/05 02:51:18;;;;;;;;;;;11.30;99.90;;;;;;5009960;28;19917;-77
2022/07/05 02:53:43;;;;;;;;;;;11.30;99.90;;;;;;5012611;28;20000;-78
2022/07/05 02:56:09;;;;;;;;;;;11.20;99.90;;;;;;5018307;28;19929;-78
2022/07/05 02:58:36;;;;;;;;;;;11.20;99.90;;;;;;5014352;28;19918;-77
2022/07/05 03:01:02;;;;;;;;;;;11.20;99.90;;;;;;5011569;28;19921;-79
2022/07/05 03:03:28;;;;;;;;;;;11.10;99.90;;;;;;5011623;28;20413;-78
2022/07/05 03:05:53;;;;;;;;;;;11.10;99.90;;;;;;5021865;28;19926;-77
2022/07/05 03:08:19;;;;;;;;;;;11.20;99.90;;;;;;4993613;28;20414;-79
2022/07/05 03:10:45;;;;;;;;;;;11.20;99.90;;;;;;4991334;28;19968;-78
2022/07/05 03:13:10;;;;;;;;;;;11.20;99.90;;;;;;5010653;28;19921;-77
2022/07/05 03:15:36;;;;;;;;;;;11.30;99.90;;;;;;5012939;28;19925;-76
2022/07/05 03:18:01;;;;;;;;;;;11.30;99.90;;;;;;5011226;28;19918;-79
2022/07/05 03:20:27;;;;;;;;;;;11.30;99.90;;;;;;5014034;28;19918;-79
2022/07/05 03:22:53;;;;;;;;;;;11.20;99.90;;;;;;5013832;28;19922;-77
2022/07/05 03:25:19;;;;;;;;;;;11.20;99.90;;;;;;5011554;28;19959;-76
2022/07/05 03:27:45;;;;;;;;;;;11.20;99.90;;;;;;4998358;28;19917;-76
2022/07/05 03:30:13;;;;;;;;;;;11.20;99.90;;;;;;5008562;28;20291;-78
2022/07/05 03:32:39;;;;;;;;;;;11.10;99.90;;;;;;5012228;28;19917;-78
2022/07/05 03:35:05;;;;;;;;;;;11.10;99.90;;;;;;4993155;28;20396;-78
2022/07/05 03:37:30;;;;;;;;;;;11.10;99.90;;;;;;5004857;28;19917;-75
2022/07/05 03:39:56;;;;;;;;;;;11.20;99.90;;;;;;5007525;28;19928;-75
2022/07/05 03:42:21;;;;;;;;;;;11.20;99.90;;;;;;5037294;28;19960;-77
2022/07/05 03:44:47;;;;;;;;;;;11.30;99.90;;;;;;5018656;28;19925;-79
2022/07/05 03:47:13;;;;;;;;;;;11.30;99.90;;;;;;5002346;28;20595;-76
2022/07/05 03:49:38;;;;;;;;;;;11.30;99.90;;;;;;5014803;28;19960;-76
2022/07/05 03:52:04;;;;;;;;;;;11.30;99.90;;;;;;5010143;28;19925;-80
2022/07/05 03:54:30;;;;;;;;;;;11.30;99.90;;;;;;5015068;28;19921;-78
2022/07/05 03:56:56;;;;;;;;;;;11.30;99.90;;;;;;5016025;28;20430;-77
2022/07/05 03:59:22;;;;;;;;;;;11.40;99.90;;;;;;5020558;28;19952;-77
2022/07/05 04:01:47;;;;;;;;;;;11.40;99.90;;;;;;5026583;28;19991;-79
2022/07/05 04:04:13;;;;;;;;;;;11.40;99.90;;;;;;5030126;28;20293;-78
2022/07/05 04:06:38;;;;;;;;;;;11.50;99.90;;;;;;5027706;28;19964;-81
2022/07/05 04:09:05;;;;;;;;;;;11.60;99.90;;;;;;5012186;28;20330;-76
2022/07/05 04:11:31;;;;;;;;;;;11.70;99.90;;;;;;4999191;28;19925;-79
2022/07/05 04:13:57;;;;;;;;;;;11.80;99.90;;;;;;5013659;28;19972;-78
2022/07/05 04:16:22;;;;;;;;;;;11.90;99.90;;;;;;5026987;28;20260;-78
2022/07/05 04:18:48;;;;;;;;;;;12.00;99.90;;;;;;5021890;28;19964;-79
2022/07/05 04:21:13;;;;;;;;;;;12.10;99.90;;;;;;5020436;28;19917;-78
2022/07/05 04:23:39;;;;;;;;;;;12.10;99.90;;;;;;5022659;28;19921;-79
2022/07/05 04:26:05;;;;;;;;;;;12.10;99.90;;;;;;5022683;28;20267;-78
2022/07/05 04:28:30;;;;;;;;;;;12.20;99.90;;;;;;4994644;28;20000;-78
2022/07/05 04:30:56;;;;;;;;;;;12.20;99.90;;;;;;5017624;28;19924;-78
2022/07/05 04:33:22;;;;;;;;;;;12.20;99.90;;;;;;5018945;28;20264;-79
2022/07/05 04:35:48;;;;;;;;;;;12.20;99.90;;;;;;5014605;28;19967;-76
2022/07/05 04:38:13;;;;;;;;;;;12.20;99.90;;;;;;4994888;28;20012;-77
2022/07/05 04:40:40;;;;;;;;;;;12.20;99.90;;;;;;5018639;28;19998;-79
2022/07/05 04:43:06;;;;;;;;;;;12.30;99.90;;;;;;5014456;28;19918;-76
2022/07/05 04:45:32;;;;;;;;;;;12.40;99.90;;;;;;4997959;28;19932;-77
2022/07/05 04:47:58;;;;;;;;;;;12.50;99.90;;;;;;5018114;28;20306;-77
2022/07/05 04:50:23;;;;;;;;;;;12.60;99.90;;;;;;5014157;28;20008;-80
2022/07/05 04:52:49;;;;;;;;;;;12.80;99.90;;;;;;5017612;28;19917;-80
2022/07/05 04:55:14;;;;;;;;;;;13.00;99.90;;;;;;5018619;28;19933;-76
2022/07/05 04:57:40;;;;;;;;;;;13.10;99.90;;;;;;5016060;28;19940;-76
2022/07/05 05:00:08;;;;;;;;;;;13.20;99.90;;;;;;5019449;28;19921;-76
2022/07/05 05:02:34;;;;;;;;;;;13.30;99.90;;;;;;5014091;28;19921;-79
2022/07/05 05:05:00;;;;;;;;;;;13.40;99.90;;;;;;5014312;28;20003;-79
2022/07/05 05:07:25;;;;;;;;;;;13.40;99.90;;;;;;5021748;28;19916;-78
2022/07/05 05:09:51;;;;;;;;;;;13.50;99.90;;;;;;5017657;28;19917;-78
2022/07/05 05:12:16;;;;;;;;;;;13.60;99.90;;;;;;5017628;28;20294;-79
2022/07/05 05:14:42;;;;;;;;;;;13.60;99.90;;;;;;5009426;28;20003;-80
2022/07/05 05:17:07;;;;;;;;;;;13.80;99.90;;;;;;5025018;28;20341;-76
2022/07/05 05:19:33;;;;;;;;;;;13.80;99.90;;;;;;5019168;28;19925;-79
2022/07/05 05:22:02;;;;;;;;;;;13.90;99.90;;;;;;5013822;28;19924;-78
2022/07/05 05:24:27;;;;;;;;;;;14.00;99.90;;;;;;5010579;28;19924;-80
2022/07/05 05:26:53;;;;;;;;;;;14.20;99.90;;;;;;5002532;28;19921;-79
2022/07/05 05:29:20;;;;;;;;;;;14.20;99.90;;;;;;5012367;28;19918;-81
2022/07/05 05:31:46;;;;;;;;;;;14.30;99.90;;;;;;4997276;28;19917;-78
2022/07/05 05:34:12;;;;;;;;;;;14.40;99.90;;;;;;4994586;28;20128;-77
2022/07/05 05:36:37;;;;;;;;;;;14.50;99.90;;;;;;5012117;28;19952;-78
2022/07/05 05:39:03;;;;;;;;;;;14.60;99.90;;;;;;5011992;28;19927;-75
2022/07/05 05:41:29;;;;;;;;;;;;;;;;;;5019810;28;20355;-76
2022/07/05 05:43:55;;;;;;;;;;;14.80;99.90;;;;;;5012458;28;20382;-79
2022/07/05 05:46:20;;;;;;;;;;;14.90;99.90;;;;;;5012145;28;19925;-76
2022/07/05 05:48:46;;;;;;;;;;;15.10;99.90;;;;;;5012514;28;20008;-78
2022/07/05 05:51:12;;;;;;;;;;;15.10;99.90;;;;;;5000261;28;19917;-81
2022/07/05 05:53:38;;;;;;;;;;;15.20;99.90;;;;;;4999956;28;19921;-79
2022/07/05 05:56:04;;;;;;;;;;;15.30;99.90;;;;;;5018905;28;20433;-77
2022/07/05 05:58:29;;;;;;;;;;;15.40;99.90;;;;;;5013971;28;19917;-78
2022/07/05 06:00:55;;;;;;;;;;;15.50;99.90;;;;;;5002710;28;19925;-79
2022/07/05 06:03:25;;;;;;;;;;;15.60;99.90;;;;;;5008280;28;19921;-77
2022/07/05 06:05:50;;;;;;;;;;;15.70;99.90;;;;;;5015435;28;19976;-79
2022/07/05 06:08:17;;;;;;;;;;;15.80;99.90;;;;;;5006838;28;19925;-78
2022/07/05 06:10:43;;;;;;;;;;;15.90;99.90;;;;;;4985314;28;19996;-77
2022/07/05 06:13:09;;;;;;;;;;;15.90;99.90;;;;;;5009036;28;20028;-79
2022/07/05 06:15:36;;;;;;;;;;;16.00;99.90;;;;;;5013405;28;19936;-76
2022/07/05 06:18:02;;;;;;;;;;;16.00;99.90;;;;;;5009863;28;19932;-79
2022/07/05 06:20:29;;;;;;;;;;;16.10;99.90;;;;;;4994330;28;19921;-79
2022/07/05 06:22:55;;;;;;;;;;;16.10;99.90;;;;;;5002518;28;20008;-79
2022/07/05 06:25:21;;;;;;;;;;;16.20;99.90;;;;;;4997789;28;19921;-77
2022/07/05 06:27:48;;;;;;;;;;;16.30;99.90;;;;;;4993676;28;20282;-78
2022/07/05 06:30:15;;;;;;;;;;;16.40;99.90;;;;;;5009025;28;20015;-77
2022/07/05 06:32:41;;;;;;;;;;;16.50;99.90;;;;;;5006820;28;19917;-76
2022/07/05 06:35:07;;;;;;;;;;;16.50;99.90;;;;;;5008086;28;19925;-77
2022/07/05 06:37:42;;;;;;;;;;;16.60;99.90;;;;;;4994101;28;19928;-73
2022/07/05 06:40:08;;;;;;;;;;;16.70;99.90;;;;;;5015112;28;19921;-75
2022/07/05 06:42:34;;;;;;;;;;;16.90;99.90;;;;;;4991679;28;19944;-77
2022/07/05 06:44:59;;;;;;;;;;;16.90;99.90;;;;;;5010722;28;19921;-74
2022/07/05 06:47:25;;;;;;;;;;;17.00;99.90;;;;;;4992559;28;20264;-77
2022/07/05 06:49:50;;;;;;;;;;;17.10;99.90;;;;;;4994283;28;19983;-76
2022/07/05 06:52:17;;;;;;;;;;;17.20;99.90;;;;;;5010176;28;19979;-77
2022/07/05 06:54:42;;;;;;;;;;;17.20;99.90;;;;;;5012035;28;19921;-77
2022/07/05 06:57:08;;;;;;;;;;;17.20;99.90;;;;;;5012768;28;19923;-75
2022/07/05 06:59:34;;;;;;;;;;;17.30;99.90;;;;;;5018658;28;19921;-76
2022/07/05 07:01:59;;;;;;;;;;;17.40;99.90;;;;;;5010886;28;19917;-78
2022/07/05 07:04:25;;;;;;;;;;;17.40;99.90;;;;;;5009259;28;19929;-82
2022/07/05 07:06:51;;;;;;;;;;;17.40;99.90;;;;;;4992009;28;20027;-81
2022/07/05 07:09:21;;;;;;;;;;;17.40;99.90;;;;;;4979694;28;19974;-75
2022/07/05 07:11:48;;;;;;;;;;;17.50;99.90;;;;;;4993565;28;19921;-79
2022/07/05 07:14:14;;;;;;;;;;;17.70;99.90;;;;;;5006092;28;19925;-77
2022/07/05 07:16:40;;;;;;;;;;;17.80;99.90;;;;;;5008241;28;19925;-81
2022/07/05 07:19:05;;;;;;;;;;;17.40;99.90;;;;;;5005991;28;20264;-80
2022/07/05 07:21:31;;;;;;;;;;;18.00;99.90;;;;;;4992750;28;19936;-79
2022/07/05 07:23:57;;;;;;;;;;;18.10;99.90;;;;;;4994496;28;19928;-79
2022/07/05 07:26:23;;;;;;;;;;;18.30;99.90;;;;;;5010502;28;19918;-79
2022/07/05 07:28:48;;;;;;;;;;;18.40;99.90;;;;;;4977592;28;19921;-82
2022/07/05 07:31:14;;;;;;;;;;;18.50;99.90;;;;;;5010072;28;20275;-82
2022/07/05 07:33:40;;;;;;;;;;;18.50;99.90;;;;;;5018586;28;19964;-81
2022/07/05 07:36:08;;;;;;;;;;;18.60;99.90;;;;;;4990212;28;19929;-86
2022/07/05 07:38:37;;;;;;;;;;;18.70;99.90;;;;;;4973730;28;19921;-79
2022/07/05 07:41:03;;;;;;;;;;;18.80;99.90;;;;;;5009048;28;20373;-84
2022/07/05 07:43:34;;;;;;;;;;;18.90;99.90;;;;;;4994203;28;19921;-81
2022/07/05 07:46:00;;;;;;;;;;;18.40;99.90;;;;;;4997038;28;20008;-79
2022/07/05 07:48:25;;;;;;;;;;;19.10;99.90;;;;;;4997393;28;20375;-79
2022/07/05 07:50:54;;;;;;;;;;;19.20;99.90;;;;;;5014164;28;19940;-83
2022/07/05 07:53:20;;;;;;;;;;;19.10;99.90;;;;;;4989017;28;19944;-75
2022/07/05 07:55:45;;;;;;;;;;;19.00;99.90;;;;;;5020270;28;19929;-75
2022/07/05 07:58:11;;;;;;;;;;;18.80;99.90;;;;;;5021672;28;19917;-76
2022/07/05 08:00:36;;;;;;;;;;;18.70;99.90;;;;;;5033079;28;19901;-76
2022/07/05 08:03:02;;;;;;;;;;;18.80;99.90;;;;;;5029782;28;19952;-78
2022/07/05 08:05:28;;;;;;;;;;;19.00;99.90;;;;;;5027554;28;20287;-78
2022/07/05 08:08:01;;;;;;;;;;;19.20;99.90;;;;;;5020839;28;19932;-82
2022/07/05 08:10:26;;;;;;;;;;;19.20;99.90;;;;;;5008507;28;20375;-80
2022/07/05 08:12:52;;;;;;;;;;;19.10;99.90;;;;;;4998156;28;19921;-80
2022/07/05 08:15:18;;;;;;;;;;;18.90;99.90;;;;;;5001875;28;19988;-78
2022/07/05 08:21:30;;;;;;;;;;;18.90;99.90;;;;;;5015006;28;20350;-77
2022/07/05 08:23:13;;;;;;;;;;;18.70;99.90;;;;;;4999248;28;20004;-80
2022/07/05 08:25:39;;;;;;;;;;;18.70;99.90;;;;;;5012273;28;19997;-80
2022/07/05 08:28:04;;;;;;;;;;;18.80;99.90;;;;;;4997154;28;19968;-77
2022/07/05 08:30:30;;;;;;;;;;;18.90;99.90;;;;;;4996262;28;20306;-76
2022/07/05 08:32:55;;;;;;;;;;;18.90;99.90;;;;;;5012991;28;19927;-77
2022/07/05 08:35:21;;;;;;;;;;;19.00;99.90;;;;;;5009629;28;19921;-79
2022/07/05 08:37:46;;;;;;;;;;;19.20;99.90;;;;;;4996320;28;20012;-77
2022/07/05 08:40:13;;;;;;;;;;;19.30;99.90;;;;;;4996497;28;19964;-77
2022/07/05 08:42:39;;;;;;;;;;;19.30;99.90;;;;;;4995047;28;20415;-78
2022/07/05 08:45:05;;;;;;;;;;;19.40;99.90;;;;;;4996990;28;20008;-79
2022/07/05 08:47:32;;;;;;;;;;;19.60;99.90;;;;;;4992342;28;20000;-79
2022/07/05 08:49:58;;;;;;;;;;;19.50;99.90;;;;;;5011924;28;19917;-76
2022/07/05 08:52:25;;;;;;;;;;;19.60;99.90;;;;;;5013708;28;19925;-80
2022/07/05 08:54:50;;;;;;;;;;;19.70;99.90;;;;;;4999074;28;20000;-78
2022/07/05 08:57:16;;;;;;;;;;;19.90;99.90;;;;;;4996609;28;20473;-78
2022/07/05 08:59:42;;;;;;;;;;;19.90;99.90;;;;;;5012418;28;19964;-79
2022/07/05 09:02:10;;;;;;;;;;;20.00;99.90;;;;;;5013309;28;19921;-79
2022/07/05 09:04:38;;;;;;;;;;;20.00;99.90;;;;;;4993669;28;19917;-80
2022/07/05 09:07:07;;;;;;;;;;;20.00;99.90;;;;;;5005183;28;19960;-77
2022/07/05 09:09:34;;;;;;;;;;;20.30;99.90;;;;;;4998333;28;20052;-79
2022/07/05 09:11:59;;;;;;;;;;;20.60;99.90;;;;;;4996918;28;19928;-79
2022/07/05 09:14:25;;;;;;;;;;;20.70;99.90;;;;;;5014641;28;20023;-79
2022/07/05 09:16:51;;;;;;;;;;;20.60;99.90;;;;;;5010782;28;19921;-81
2022/07/05 09:19:17;;;;;;;;;;;20.50;99.90;;;;;;5011398;28;19921;-79
2022/07/05 09:21:42;;;;;;;;;;;20.40;99.90;;;;;;5012559;28;19921;-79
2022/07/05 09:24:10;;;;;;;;;;;20.40;99.90;;;;;;5016161;28;19921;-80
2022/07/05 09:26:39;;;;;;;;;;;20.50;99.90;;;;;;4976342;28;19929;-79
2022/07/05 09:29:10;;;;;;;;;;;20.40;99.90;;;;;;5014463;28;19985;-79
2022/07/05 09:31:40;;;;;;;;;;;20.40;99.90;;;;;;5011705;28;20610;-78
2022/07/05 09:34:46;;;;;;;;;;;20.30;99.90;;;;;;5013635;28;19917;-85
2022/07/05 09:37:14;;;;;;;;;;;19.70;99.90;;;;;;4989629;28;21171;-78
2022/07/05 09:39:40;;;;;;;;;;;20.20;99.90;;;;;;5008128;28;19959;-78
2022/07/05 09:42:12;;;;;;;;;;;20.00;99.90;;;;;;4995873;28;19924;-81
2022/07/05 09:44:41;;;;;;;;;;;19.70;99.90;;;;;;5005591;28;20477;-76
2022/07/05 09:47:11;;;;;;;;;;;19.50;99.90;;;;;;5011550;28;19952;-84
2022/07/05 09:49:39;;;;;;;;;;;19.40;99.90;;;;;;5010513;28;19956;-83
2022/07/05 09:52:05;;;;;;;;;;;19.40;99.90;;;;;;5011920;28;19921;-80
2022/07/05 09:54:30;;;;;;;;;;;19.50;99.90;;;;;;4981766;28;19932;-78
2022/07/05 09:57:05;;;;;;;;;;;19.50;99.90;;;;;;5016258;28;19932;-82
2022/07/05 09:59:30;;;;;;;;;;;18.50;99.90;;;;;;5011151;28;19922;-76
2022/07/05 10:01:56;;;;;;;;;;;19.70;99.90;;;;;;5014088;28;19943;-77
2022/07/05 10:04:22;;;;;;;;;;;19.70;99.90;;;;;;5010350;28;20340;-75
2022/07/05 10:06:47;;;;;;;;;;;19.70;99.90;;;;;;5010102;28;19921;-76
2022/07/05 10:09:14;;;;;;;;;;;19.80;99.90;;;;;;5010700;28;19921;-78
2022/07/05 10:11:44;;;;;;;;;;;20.00;99.90;;;;;;5011889;28;19967;-79
2022/07/05 10:14:17;;;;;;;;;;;20.30;99.90;;;;;;4999199;28;19928;-77
2022/07/05 10:16:46;;;;;;;;;;;20.50;99.90;;;;;;5010371;28;19968;-77
2022/07/05 10:19:17;;;;;;;;;;;20.70;99.90;;;;;;4995629;28;20298;-76
2022/07/05 10:21:43;;;;;;;;;;;20.90;99.90;;;;;;4995285;28;19921;-78
2022/07/05 10:24:09;;;;;;;;;;;21.00;99.90;;;;;;4999637;28;19952;-77
2022/07/05 10:26:36;;;;;;;;;;;20.90;98.60;;;;;;4956511;28;19929;-76
2022/07/05 10:29:02;;;;;;;;;;;20.80;98.70;;;;;;4999976;28;20023;-72
2022/07/05 10:31:29;;;;;;;;;;;20.60;99.10;;;;;;5010532;28;20427;-80
2022/07/05 10:33:56;;;;;;;;;;;20.40;99.90;;;;;;4992990;28;19917;-80
2022/07/05 10:37:05;;;;;;;0.20;0.20;;;20.10;99.90;;;;;;5090412;27;2054319;-79
2022/07/05 10:39:31;;;;;;;3.67;1.10;;;20.10;99.90;;;;;;5149699;27;20051;-81
2022/07/05 10:41:58;;;;;;;0.30;0.30;;;20.30;99.90;;;;;;5143833;27;20046;-78
2022/07/05 10:44:32;;;;;;;0.30;0.30;;;20.60;99.90;;;;;;5139504;27;20072;-76
2022/07/05 10:47:11;;;;;;;0.35;0.35;;;20.90;99.90;;;;;;5133996;27;20050;-76
2022/07/05 10:49:38;;;;;;;0.45;0.45;;;20.80;99.90;;;;;;5133942;27;20035;-79
2022/07/05 10:52:24;;;;;;;0.20;0.20;;;20.60;99.90;;;;;;5108593;27;20165;-79
2022/07/05 10:55:16;;;;;;;0.30;0.30;;;20.50;99.90;;;;;;5145637;27;20069;-80
2022/07/05 10:57:42;;;;;;;0.40;0.40;;;20.60;99.90;;;;;;5122854;27;20047;-78
2022/07/05 11:00:10;;;;;;;0.20;0.20;;;20.50;99.70;;;;;;5135903;27;20543;-77
2022/07/05 11:02:39;;;;;;;0.40;0.40;;;20.40;99.90;;;;;;5130003;27;20496;-78
2022/07/05 11:05:05;;;;;;;0.50;0.50;;;20.30;99.90;;;;;;5138390;27;20046;-80
2022/07/05 11:08:02;;;;;;;0.60;0.60;;;20.20;99.90;;;;;;5131970;27;20123;-79
2022/07/05 11:10:27;;;;;;;0.32;0.32;;;20.70;99.90;;;;;;5132776;27;20051;-79
2022/07/05 11:13:36;;;;;;;0.45;0.45;;;21.00;99.80;;;;;;5132866;27;20137;-79
2022/07/05 11:16:31;;;;;;;0.40;0.40;;;21.00;98.20;;;;;;5125323;27;20472;-78
2022/07/05 11:19:10;;;;;;;0.30;0.30;;;20.80;98.50;;;;;;5127405;27;20432;-79
2022/07/05 11:21:37;;;;;;;0.30;0.30;;;20.40;98.40;;;;;;5131118;27;20325;-78
2022/07/05 11:24:24;;;;;;;0.30;0.30;;;20.40;99.40;;;;;;5128346;27;20049;-79
2022/07/05 11:26:52;;;;;;;0.20;0.20;;;20.70;99.90;;;;;;5125534;27;20047;-78
2022/07/05 11:29:48;;;;;;;0.40;0.40;;;20.90;99.20;;;;;;5124229;27;20042;-80
2022/07/05 11:32:17;;;;;;;0.50;0.50;;;21.00;98.30;;;;;;5132474;27;20042;-80
2022/07/05 11:34:44;;;;;;;0.30;0.30;;;20.90;97.80;;;;;;5112784;27;20030;-77
2022/07/05 11:37:13;;;;;;;0.57;0.57;;;20.80;98.60;;;;;;5152759;27;20050;-78
2022/07/05 11:39:39;;;;;;;0.38;0.38;;;20.70;98.50;;;;;;5126502;27;20042;-79
2022/07/05 11:42:05;;;;;;;0.25;0.25;;;20.50;98.60;;;;;;5117576;27;20337;-79
2022/07/05 11:44:35;;;;;;;0.30;0.30;;;20.20;99.50;;;;;;5147774;27;20045;-79
2022/07/05 11:47:03;;;;;;;0.20;0.20;;;19.90;99.90;;;;;;5132986;27;20057;-80
2022/07/05 11:49:29;;;;;;;0.77;0.77;;;19.70;99.90;;;;;;5124575;27;20388;-76
2022/07/05 11:51:55;;;;;;;1.17;0.47;;;19.50;99.90;;;;;;5112521;27;20043;-80
2022/07/05 11:54:32;;;;;;;0.30;0.30;;;19.20;99.90;;;;;;5133835;27;20058;-81
2022/07/05 11:56:59;;;;;;;0.30;0.30;;;19.10;99.90;;;;;;5103701;27;20055;-81
2022/07/05 11:59:26;;;;;;;0.38;0.30;;;19.00;99.90;;;;;;5113493;27;20055;-77
2022/07/05 12:01:54;;;;;;;1.65;1.55;;;18.90;99.90;;;;;;5129110;27;20090;-80
2022/07/05 12:04:42;;;;;;;0.30;0.30;;;18.90;99.90;;;;;;5120386;27;20096;-82
2022/07/05 12:07:08;;;;;;;0.32;0.32;;;18.80;99.90;;;;;;5102348;27;20051;-79
2022/07/05 12:15:04;;;;;;;0.30;0.30;;;18.60;99.90;;;;;;5131866;27;20500;-80
2022/07/05 12:17:30;;;;;;;;;;;18.50;99.90;;;;;;5100309;27;20035;-80
2022/07/05 12:19:55;;;;;;;0.30;0.30;;;18.30;99.90;;;;;;5113666;27;19960;-79
2022/07/05 12:22:31;;;;;;;;;;;18.20;99.90;;;;;;5099524;27;20096;-80
2022/07/05 12:24:58;;;;;;;0.10;0.10;;;18.10;99.90;;;;;;5112588;27;20375;-79
2022/07/05 12:27:33;;;;;;;0.30;0.30;;;18.10;99.90;;;;;;5127909;27;20363;-81
2022/07/05 12:30:01;;;;;;;0.30;0.30;;;18.10;99.90;;;;;;5137794;27;20289;-81
2022/07/05 12:32:30;;;;;;;0.40;0.40;;;18.20;99.90;;;;;;5107564;27;20038;-79
2022/07/05 12:34:59;;;;;;;0.30;0.30;;;18.50;99.90;;;;;;5136640;27;20175;-78
2022/07/05 12:37:27;;;;;;;0.30;0.30;;;18.80;99.90;;;;;;5118078;27;20050;-79
2022/07/05 12:40:09;;;;;;;0.40;0.40;;;19.10;99.90;;;;;;5119136;27;20482;-78
2022/07/05 12:42:37;;;;;;;0.28;0.28;;;19.30;99.90;;;;;;5105469;27;20368;-78
2022/07/05 12:45:14;;;;;;;0.32;0.32;;;19.50;99.90;;;;;;5106220;27;20125;-77
2022/07/05 12:47:50;;;;;;;0.32;0.32;;;19.60;99.90;;;;;;5117133;27;20057;-79
2022/07/05 12:50:16;;;;;;;0.85;0.63;;;19.60;99.90;;;;;;5126698;27;20084;-77
2022/07/05 12:58:01;;;;;;;;;;;19.60;99.90;;;;;;5140239;27;20074;-80
2022/07/05 12:58:33;;;;;;;0.63;0.43;;;19.50;99.90;;;;;;5121299;27;20442;-79
2022/07/05 13:00:59;;;;;;;0.20;0.20;;;19.40;99.90;;;;;;5111186;27;20057;-79
2022/07/05 13:03:26;;;;;;;0.55;0.55;;;19.40;99.90;;;;;;5125910;27;20043;-77
2022/07/05 13:06:02;;;;;;;0.30;0.30;;;19.20;99.90;;;;;;5107558;27;20046;-80
2022/07/05 13:08:31;;;;;;;0.50;0.50;;;19.10;99.90;;;;;;5110041;27;20035;-79
2022/07/05 13:10:57;;;;;;;0.22;0.22;;;19.00;99.90;;;;;;5115419;27;20062;-79
2022/07/05 13:13:23;;;;;;;;;;;18.90;99.90;;;;;;5104977;27;20039;-80
2022/07/05 13:15:49;;;;;;;2.63;0.50;;;18.80;99.90;;;;;;5123312;27;19919;-79
2022/07/05 13:18:34;;;;;;;;;;;18.80;99.90;;;;;;5109439;27;20398;-80
2022/07/05 13:21:00;;;;;;;0.30;0.30;;;18.80;99.90;;;;;;5117205;27;20220;-80
2022/07/05 13:23:26;;;;;;;;;;;18.90;99.90;;;;;;5120832;27;20061;-79
2022/07/05 13:25:51;;;;;;;0.30;0.30;;;19.10;99.90;;;;;;5104181;27;19997;-80
2022/07/05 13:28:18;;;;;;;;;;;19.30;99.90;;;;;;5110267;27;20038;-80
2022/07/05 13:30:44;;;;;;;0.35;0.35;;;19.70;99.90;;;;;;5126695;27;19923;-76
2022/07/05 13:33:09;;;;;;;;;;;20.20;99.90;;;;;;5140397;27;20097;-80
2022/07/05 13:35:35;;;;;;;0.50;0.50;;;;;;;;;;5101449;27;19919;-80
2022/07/05 13:38:01;;;;;;;0.30;0.30;;;21.30;99.90;;;;;;5104767;27;20062;-78
2022/07/05 13:40:27;;;;;;;0.40;0.40;;;21.70;99.90;;;;;;5097414;27;20042;-78
2022/07/05 13:42:52;;;;;;;0.30;0.30;;;21.90;98.50;;;;;;5110911;27;20103;-81
2022/07/05 13:45:18;;;;;;;0.30;0.30;;;21.90;98.90;;;;;;5133919;27;20162;-78
2022/07/05 13:47:44;;;;;;;0.30;0.30;;;21.00;98.70;;;;;;5122997;27;20047;-77
2022/07/05 13:52:54;;;;;;;0.28;0.28;;;20.90;99.90;;;;;;5137493;27;20115;-79
2022/07/05 13:55:19;;;;;;;0.38;0.38;;;21.40;99.90;;;;;;5091677;27;20557;-77
2022/07/05 13:57:48;;;;;;;0.30;0.30;;;21.70;99.90;;;;;;5117226;27;20079;-81
2022/07/05 14:00:14;;;;;;;0.43;0.43;;;21.60;99.90;;;;;;5103522;27;20046;-80
2022/07/05 14:02:40;;;;;;;0.57;0.57;;;21.50;99.90;;;;;;5125971;27;20381;-79
2022/07/05 14:05:06;;;;;;;0.30;0.30;;;21.10;99.90;;;;;;5113512;27;20057;-83
2022/07/05 14:07:32;;;;;;;0.40;0.40;;;21.90;99.90;;;;;;5124254;27;20039;-79
2022/07/05 14:09:57;;;;;;;0.30;0.30;;;21.90;99.90;;;;;;5114509;27;20050;-77
2022/07/05 14:12:23;;;;;;;0.20;0.20;;;22.30;99.90;;;;;;5136300;27;20042;-79